Time;durP1;ratioP1;P1;durP2;ratioP2;P2;SDS_P1;SDS_P2;PMS_P1;PMS_P2;Temp;Humidity;BMP_temperature;BMP_pressure;BME280_temperature;BME280_humidity;BME280_pressure;Samples;Min_cycle;Max_cycle;Signal;HPM_P1;HPM_P2
2023/10/09 00:01:12;;;;;;;20.30;12.15;;;16.20;81.50;;;;;;5033781;28;20033;-68
2023/10/09 00:03:43;;;;;;;20.63;11.45;;;16.20;81.60;;;;;;5030918;28;20420;-70
2023/10/09 00:06:12;;;;;;;20.02;10.95;;;16.20;81.70;;;;;;5034519;28;20195;-70
2023/10/09 00:08:39;;;;;;;21.52;12.50;;;16.20;81.70;;;;;;5032095;28;20033;-70
2023/10/09 00:13:48;;;;;;;21.45;12.52;;;16.20;81.80;;;;;;5030992;28;20026;-68
2023/10/09 00:16:16;;;;;;;26.75;12.75;;;16.20;81.90;;;;;;5034523;28;20354;-68
2023/10/09 00:18:46;;;;;;;22.35;12.00;;;16.20;82.00;;;;;;5032532;28;20366;-67
2023/10/09 00:21:16;;;;;;;20.95;11.95;;;16.20;82.00;;;;;;5032218;28;20417;-67
2023/10/09 00:23:42;;;;;;;23.48;13.25;;;16.30;82.10;;;;;;5031065;28;20585;-67
2023/10/09 00:26:11;;;;;;;21.30;13.30;;;16.20;82.10;;;;;;5033250;28;20041;-67
2023/10/09 00:28:47;;;;;;;23.25;12.63;;;16.20;82.10;;;;;;5031411;28;20048;-67
2023/10/09 00:31:16;;;;;;;22.67;14.05;;;16.30;82.20;;;;;;5036592;28;20370;-67
2023/10/09 00:33:45;;;;;;;24.08;13.77;;;16.30;82.30;;;;;;5033827;28;20021;-67
2023/10/09 00:36:14;;;;;;;23.67;14.05;;;16.30;82.30;;;;;;5032434;28;20022;-67
2023/10/09 00:38:39;;;;;;;24.90;13.80;;;16.30;82.30;;;;;;5032011;28;20029;-68
2023/10/09 00:43:36;;;;;;;23.35;14.60;;;16.30;82.40;;;;;;5032232;28;20144;-67
2023/10/09 00:46:08;;;;;;;26.20;13.75;;;16.30;82.50;;;;;;5033132;28;20029;-67
2023/10/09 00:48:40;;;;;;;28.80;15.93;;;16.30;82.40;;;;;;5039190;28;20040;-68
2023/10/09 00:51:19;;;;;;;24.60;14.90;;;16.30;82.50;;;;;;5049711;28;20071;-67
2023/10/09 00:53:51;;;;;;;24.95;14.98;;;16.20;82.50;;;;;;5029000;28;20025;-68
2023/10/09 00:58:56;;;;;;;27.05;14.88;;;16.20;82.70;;;;;;5044252;28;20061;-68
2023/10/09 01:01:34;;;;;;;21.40;14.93;;;16.30;82.80;;;;;;5051154;28;20033;-68
2023/10/09 01:04:06;;;;;;;24.75;15.90;;;16.20;82.70;;;;;;5018857;28;20025;-68
2023/10/09 01:06:33;;;;;;;25.92;14.57;;;16.30;82.80;;;;;;5039146;28;20040;-68
2023/10/09 01:09:12;;;;;;;26.70;15.00;;;16.20;82.80;;;;;;5035385;28;20063;-68
2023/10/09 01:14:40;;;;;;;26.83;14.43;;;16.20;82.90;;;;;;5042038;28;20069;-68
2023/10/09 01:17:11;;;;;;;26.35;15.02;;;16.20;82.90;;;;;;5053558;28;20132;-67
2023/10/09 01:19:37;;;;;;;27.00;15.10;;;16.30;83.00;;;;;;5015205;28;20029;-68
2023/10/09 01:22:16;;;;;;;23.75;13.95;;;16.20;83.00;;;;;;5045154;28;20030;-67
2023/10/09 01:24:43;;;;;;;23.88;15.15;;;16.30;83.00;;;;;;5041628;28;20064;-67
2023/10/09 01:27:16;;;;;;;27.30;15.32;;;16.30;83.00;;;;;;5045817;28;20044;-67
2023/10/09 01:29:42;;;;;;;25.33;14.93;;;16.30;83.10;;;;;;5042481;28;20363;-67
2023/10/09 01:32:16;;;;;;;28.10;16.20;;;16.30;83.10;;;;;;5036248;28;20022;-67
2023/10/09 01:34:43;;;;;;;25.50;15.85;;;16.30;83.10;;;;;;5044406;28;20445;-67
2023/10/09 01:37:26;;;;;;;27.15;16.27;;;16.30;83.10;;;;;;5035694;28;20115;-68
2023/10/09 01:39:58;;;;;;;24.77;16.13;;;16.30;83.20;;;;;;5024200;28;20076;-67
2023/10/09 01:44:53;;;;;;;24.95;16.10;;;16.30;83.20;;;;;;5041322;28;20026;-67
2023/10/09 01:47:21;;;;;;;23.50;15.32;;;16.40;83.30;;;;;;5046733;28;20079;-67
2023/10/09 01:49:52;;;;;;;27.88;17.08;;;16.40;83.30;;;;;;5044121;28;20029;-67
2023/10/09 01:52:20;;;;;;;29.02;16.88;;;16.40;83.30;;;;;;5039615;28;20048;-68
2023/10/09 01:54:50;;;;;;;28.67;17.13;;;16.40;83.40;;;;;;5047672;28;20053;-68
2023/10/09 01:57:29;;;;;;;29.75;16.85;;;16.40;83.40;;;;;;5053240;28;20029;-68
2023/10/09 01:59:59;;;;;;;27.98;16.92;;;16.40;83.50;;;;;;5058617;28;20017;-68
2023/10/09 02:02:34;;;;;;;28.30;17.67;;;16.40;83.40;;;;;;5042986;28;20033;-67
2023/10/09 02:05:09;;;;;;;25.58;16.88;;;16.40;83.50;;;;;;5046931;28;20083;-68
2023/10/09 02:07:44;;;;;;;27.90;17.02;;;16.40;83.50;;;;;;5036029;28;20036;-68
2023/10/09 02:12:53;;;;;;;29.25;18.27;;;16.40;83.50;;;;;;5048701;28;20055;-67
2023/10/09 02:15:40;;;;;;;26.35;17.17;;;16.40;83.50;;;;;;5042021;28;20029;-68
2023/10/09 02:18:16;;;;;;;31.00;18.08;;;16.50;83.50;;;;;;5034744;28;20030;-67
2023/10/09 02:20:45;;;;;;;30.55;17.48;;;16.50;83.50;;;;;;5042808;28;20040;-67
2023/10/09 02:23:13;;;;;;;29.83;18.85;;;16.50;83.60;;;;;;5045142;28;20029;-67
2023/10/09 02:25:43;;;;;;;28.95;18.80;;;16.50;83.70;;;;;;5031172;28;20556;-67
2023/10/09 02:28:19;;;;;;;27.98;18.08;;;16.50;83.80;;;;;;5042934;28;20029;-68
2023/10/09 02:30:48;;;;;;;26.88;17.80;;;16.50;83.80;;;;;;5027901;28;20022;-67
2023/10/09 02:33:20;;;;;;;29.45;17.40;;;16.50;83.70;;;;;;5034475;28;20120;-67
2023/10/09 02:35:51;;;;;;;30.75;18.83;;;16.50;83.70;;;;;;5039974;28;20036;-68
2023/10/09 02:38:17;;;;;;;28.52;18.48;;;16.50;83.70;;;;;;5021966;28;20416;-68
2023/10/09 02:43:46;;;;;;;29.45;18.02;;;16.50;83.70;;;;;;5051375;28;20044;-67
2023/10/09 02:46:29;;;;;;;26.92;17.83;;;16.50;83.80;;;;;;5023559;28;20175;-67
2023/10/09 02:48:56;;;;;;;26.05;16.45;;;16.50;83.80;;;;;;5047041;28;20033;-68
2023/10/09 02:53:54;;;;;;;26.77;17.83;;;16.50;83.80;;;;;;5050337;28;20385;-68
2023/10/09 02:59:07;;;;;;;28.77;18.55;;;16.60;83.80;;;;;;5041563;28;20116;-68
2023/10/09 03:01:34;;;;;;;29.42;18.63;;;16.50;83.80;;;;;;5037696;28;20036;-68
2023/10/09 03:04:10;;;;;;;27.92;18.08;;;16.60;83.80;;;;;;5047408;28;20068;-67
2023/10/09 03:06:38;;;;;;;27.38;17.38;;;16.60;83.90;;;;;;5038894;28;20028;-68
2023/10/09 03:09:16;;;;;;;29.92;17.50;;;16.60;83.90;;;;;;5034312;28;20052;-68
2023/10/09 03:12:11;;;;;;;25.90;17.35;;;16.60;83.90;;;;;;5033338;28;20033;-67
2023/10/09 03:14:41;;;;;;;25.08;18.25;;;16.60;83.90;;;;;;5043065;28;20132;-67
2023/10/09 03:17:11;;;;;;;28.48;18.30;;;16.60;83.90;;;;;;5033310;28;20025;-68
2023/10/09 03:19:37;;;;;;;26.40;17.83;;;16.60;84.00;;;;;;5040154;28;20135;-68
2023/10/09 03:22:04;;;;;;;27.92;17.67;;;16.60;84.00;;;;;;5033574;28;20370;-67
2023/10/09 03:24:33;;;;;;;30.90;18.48;;;16.60;84.00;;;;;;5034205;28;20406;-68
2023/10/09 03:26:59;;;;;;;30.08;18.85;;;16.60;84.10;;;;;;5033689;28;20064;-67
2023/10/09 03:29:27;;;;;;;26.50;17.98;;;16.60;84.10;;;;;;5033394;28;20045;-67
2023/10/09 03:31:55;;;;;;;26.45;18.73;;;16.60;84.10;;;;;;5033738;28;20026;-68
2023/10/09 03:34:21;;;;;;;25.80;18.25;;;16.70;84.20;;;;;;5050613;28;20040;-68
2023/10/09 03:36:51;;;;;;;24.15;17.00;;;16.60;84.10;;;;;;5032515;28;20041;-67
2023/10/09 03:42:05;;;;;;;27.35;17.95;;;16.60;84.20;;;;;;5035392;28;20063;-68
2023/10/09 03:44:35;;;;;;;29.25;18.05;;;16.60;84.20;;;;;;5038840;28;20060;-68
2023/10/09 03:47:02;;;;;;;26.60;17.77;;;16.60;84.20;;;;;;5046713;28;20033;-68
2023/10/09 03:49:29;;;;;;;31.67;19.42;;;16.60;84.30;;;;;;5035523;28;20036;-68
2023/10/09 03:51:55;;;;;;;25.52;18.17;;;16.60;84.30;;;;;;5032810;28;20044;-67
2023/10/09 03:54:22;;;;;;;27.80;18.90;;;16.60;84.40;;;;;;5034285;28;20042;-68
2023/10/09 03:56:54;;;;;;;25.08;17.92;;;16.70;84.40;;;;;;5044946;28;20638;-67
2023/10/09 03:59:21;;;;;;;25.33;17.40;;;16.70;84.50;;;;;;5042971;28;20041;-68
2023/10/09 04:01:52;;;;;;;24.15;17.85;;;16.60;84.50;;;;;;5039095;28;20033;-67
2023/10/09 04:04:22;;;;;;;27.38;18.08;;;16.60;84.50;;;;;;5041373;28;20037;-67
2023/10/09 04:06:48;;;;;;;26.88;18.90;;;16.70;84.60;;;;;;5053631;28;20044;-67
2023/10/09 04:14:50;;;;;;;23.60;17.88;;;16.70;84.60;;;;;;5045114;28;20029;-68
2023/10/09 04:20:33;;;;;;;26.83;17.90;;;16.70;84.60;;;;;;5031904;28;20033;-68
2023/10/09 04:23:04;;;;;;;24.75;17.23;;;16.70;84.60;;;;;;5042532;28;20127;-67
2023/10/09 04:25:25;;;;;;;24.60;17.17;;;16.70;84.60;;;;;;5036354;28;20474;-68
2023/10/09 04:28:08;;;;;;;26.10;17.95;;;16.70;84.60;;;;;;5037062;28;20026;-68
2023/10/09 04:30:40;;;;;;;26.65;17.85;;;16.70;84.60;;;;;;5032823;28;20570;-68
2023/10/09 04:33:11;;;;;;;25.30;16.52;;;16.70;84.60;;;;;;5034135;28;20466;-67
2023/10/09 04:35:38;;;;;;;26.23;17.45;;;16.70;84.60;;;;;;5038691;28;20033;-67
2023/10/09 04:38:06;;;;;;;23.83;16.10;;;16.70;84.60;;;;;;5035040;28;20025;-68
2023/10/09 04:40:48;;;;;;;22.45;15.77;;;16.80;84.60;;;;;;5031778;28;20059;-68
2023/10/09 04:43:20;;;;;;;23.20;15.90;;;16.80;84.70;;;;;;5021971;28;20087;-68
2023/10/09 04:48:33;;;;;;;20.83;14.93;;;16.80;84.70;;;;;;5030881;28;20037;-68
2023/10/09 04:53:50;;;;;;;22.88;14.82;;;16.80;84.70;;;;;;5031677;28;20113;-68
2023/10/09 04:56:16;;;;;;;;;;;16.80;84.70;;;;;;5032711;28;20406;-68
2023/10/09 04:58:43;;;;;;;21.92;13.10;;;16.80;84.60;;;;;;5051240;28;19909;-67
2023/10/09 05:01:13;;;;;;;19.20;14.13;;;16.80;84.60;;;;;;5035897;28;20033;-66
2023/10/09 05:06:21;;;;;;;22.80;14.77;;;16.80;84.70;;;;;;5035789;28;20021;-66
2023/10/09 05:08:48;;;;;;;20.30;14.95;;;16.90;84.80;;;;;;5035198;28;20030;-65
2023/10/09 05:14:11;;;;;;;20.52;14.35;;;16.90;84.70;;;;;;5032864;28;20087;-66
2023/10/09 05:16:44;;;;;;;21.88;14.70;;;16.90;84.80;;;;;;5034106;28;20053;-66
2023/10/09 05:19:28;;;;;;;20.75;13.68;;;16.90;84.80;;;;;;5034734;28;20033;-67
2023/10/09 05:21:58;;;;;;;19.67;13.52;;;16.90;84.80;;;;;;5017430;28;20021;-66
2023/10/09 05:24:26;;;;;;;20.98;14.18;;;16.90;84.80;;;;;;5036033;28;20029;-66
2023/10/09 05:26:52;;;;;;;21.20;15.20;;;16.90;84.90;;;;;;5038197;28;20028;-66
2023/10/09 05:34:36;;;;;;;17.45;11.82;;;17.00;85.00;;;;;;5036046;28;19909;-66
2023/10/09 05:37:43;;;;;;;20.40;13.50;;;16.90;84.90;;;;;;5042701;28;20021;-66
2023/10/09 05:42:44;;;;;;;19.35;13.63;;;17.00;84.90;;;;;;5046652;28;20369;-68
2023/10/09 05:47:53;;;;;;;19.67;14.43;;;17.00;85.10;;;;;;5057299;28;20107;-66
2023/10/09 05:53:04;;;;;;;21.42;13.57;;;17.00;85.20;;;;;;5043423;28;20061;-66
2023/10/09 06:14:12;;;;;;;21.30;13.45;;;17.10;85.40;;;;;;5024810;28;20461;-66
2023/10/09 06:16:42;;;;;;;20.25;13.25;;;17.10;85.40;;;;;;5046111;28;20029;-67
2023/10/09 06:19:26;;;;;;;20.65;13.20;;;17.10;85.40;;;;;;5033378;28;20083;-67
2023/10/09 06:30:23;;;;;;;19.73;12.88;;;17.10;85.50;;;;;;5023565;28;20351;-66
2023/10/09 06:35:30;;;;;;;;;;;17.20;85.50;;;;;;5013468;28;20029;-65
2023/10/09 06:41:34;;;;;;;20.75;13.48;;;17.10;85.40;;;;;;5026124;28;20030;-66
2023/10/09 06:45:54;;;;;;;18.02;13.25;;;17.20;85.50;;;;;;5027638;28;20041;-66
2023/10/09 06:59:21;;;;;;;19.38;13.00;;;17.30;85.60;;;;;;5030638;28;20168;-68
2023/10/09 07:07:09;;;;;;;19.70;12.38;;;17.30;85.60;;;;;;5033335;28;20453;-69
2023/10/09 07:10:28;;;;;;;19.00;12.95;;;17.40;85.70;;;;;;5029801;28;20465;-68
2023/10/09 07:12:32;;;;;;;20.75;13.23;;;17.40;85.80;;;;;;5024939;28;20044;-68
2023/10/09 07:16:23;;;;;;;18.88;13.23;;;17.30;85.70;;;;;;5035716;28;20068;-69
2023/10/09 07:18:18;;;;;;;20.88;13.65;;;17.40;85.80;;;;;;5027501;28;20466;-69
2023/10/09 07:20:58;;;;;;;19.02;12.70;;;17.40;85.80;;;;;;5032535;28;20033;-71
2023/10/09 07:23:28;;;;;;;18.13;12.85;;;17.40;85.80;;;;;;5034383;28;20365;-71
2023/10/09 07:26:17;;;;;;;19.38;13.85;;;17.40;85.80;;;;;;5029037;28;20347;-70
2023/10/09 07:28:48;;;;;;;19.55;12.30;;;17.50;85.90;;;;;;5031603;28;20489;-70
2023/10/09 07:31:24;;;;;;;21.50;13.30;;;17.50;85.80;;;;;;5014338;28;20026;-71
2023/10/09 07:33:59;;;;;;;18.52;13.23;;;17.50;85.70;;;;;;5033951;28;20029;-69
2023/10/09 07:36:37;;;;;;;21.60;14.00;;;17.50;85.70;;;;;;5033435;28;20087;-70
2023/10/09 07:39:12;;;;;;;20.48;13.18;;;17.50;85.70;;;;;;5021493;28;20029;-69
2023/10/09 07:41:55;;;;;;;22.83;13.18;;;17.50;85.70;;;;;;5028042;28;20104;-69
2023/10/09 07:44:36;;;;;;;20.23;13.35;;;17.50;85.70;;;;;;5027455;28;20025;-69
2023/10/09 07:47:22;;;;;;;20.73;14.07;;;17.60;85.60;;;;;;5033975;28;20044;-70
2023/10/09 07:49:51;;;;;;;19.65;12.70;;;17.60;85.60;;;;;;5033741;28;20029;-70
2023/10/09 07:52:18;;;;;;;19.13;13.10;;;17.60;85.60;;;;;;5032913;28;20454;-69
2023/10/09 07:54:49;;;;;;;21.27;13.45;;;17.60;85.60;;;;;;5030214;28;20025;-69
2023/10/09 07:57:17;;;;;;;18.42;13.32;;;17.70;85.70;;;;;;5031637;28;20435;-68
2023/10/09 08:00:00;;;;;;;21.88;13.43;;;17.70;85.70;;;;;;5034825;28;20091;-69
2023/10/09 08:02:32;;;;;;;21.85;13.98;;;17.70;85.80;;;;;;5032569;28;20033;-68
2023/10/09 08:05:06;;;;;;;27.67;14.52;;;17.70;85.70;;;;;;5016457;28;20021;-71
2023/10/09 08:07:36;;;;;;;20.85;14.00;;;17.70;85.70;;;;;;5030730;28;20029;-70
2023/10/09 08:15:21;;;;;;;21.17;14.63;;;17.80;85.80;;;;;;5030165;28;20033;-68
2023/10/09 08:17:53;;;;;;;21.90;13.90;;;17.80;85.80;;;;;;5027722;28;20091;-69
2023/10/09 08:20:26;;;;;;;20.60;13.73;;;17.80;85.70;;;;;;5023948;28;20026;-69
2023/10/09 08:22:56;;;;;;;18.88;13.45;;;17.90;85.70;;;;;;5025235;28;20030;-67
2023/10/09 08:30:51;;;;;;;20.95;13.43;;;18.00;85.60;;;;;;5028540;28;20033;-70
2023/10/09 08:36:01;;;;;;;21.27;13.02;;;18.10;85.50;;;;;;5025524;28;20069;-69
2023/10/09 08:38:33;;;;;;;21.83;12.68;;;18.10;85.40;;;;;;5026403;28;20037;-68
2023/10/09 08:41:15;;;;;;;24.38;13.05;;;18.20;85.40;;;;;;5029728;28;20069;-67
2023/10/09 08:43:47;;;;;;;20.25;12.43;;;18.20;85.40;;;;;;5028560;28;20107;-66
2023/10/09 08:46:18;;;;;;;22.95;13.02;;;18.20;85.30;;;;;;5028974;28;20033;-66
2023/10/09 08:48:45;;;;;;;19.20;12.00;;;18.30;85.30;;;;;;5027399;28;20025;-69
2023/10/09 08:51:11;;;;;;;21.75;13.35;;;18.30;85.20;;;;;;5029212;28;20409;-67
2023/10/09 08:53:42;;;;;;;20.60;12.45;;;18.40;85.20;;;;;;5026897;28;20030;-67
2023/10/09 08:56:10;;;;;;;21.70;13.55;;;18.40;85.10;;;;;;5025150;28;20098;-67
2023/10/09 08:58:40;;;;;;;18.73;12.68;;;18.50;85.00;;;;;;5028412;28;20076;-67
2023/10/09 09:01:06;;;;;;;23.20;13.60;;;18.50;84.90;;;;;;5030624;28;20041;-66
2023/10/09 09:03:44;;;;;;;20.48;13.90;;;18.50;84.90;;;;;;5032557;28;20033;-68
2023/10/09 09:06:11;;;;;;;18.25;12.95;;;18.60;84.80;;;;;;5024670;28;20026;-68
2023/10/09 09:08:37;;;;;;;20.65;12.82;;;18.60;84.80;;;;;;5025186;28;20025;-68
2023/10/09 09:11:24;;;;;;;19.38;13.23;;;18.60;84.70;;;;;;5033842;28;20020;-68
2023/10/09 09:14:04;;;;;;;20.05;12.63;;;18.60;84.70;;;;;;5034257;28;20048;-68
2023/10/09 09:16:31;;;;;;;20.33;12.63;;;18.70;84.70;;;;;;5035475;28;20065;-68
2023/10/09 09:21:40;;;;;;;21.13;12.95;;;18.70;84.60;;;;;;5045989;28;20354;-68
2023/10/09 09:27:31;;;;;;;18.30;11.73;;;18.70;84.60;;;;;;5036834;28;20339;-68
2023/10/09 09:29:54;;;;;;;19.23;12.85;;;18.70;84.60;;;;;;5044250;28;20061;-68
2023/10/09 09:32:37;;;;;;;21.13;12.68;;;18.70;84.60;;;;;;5049078;28;20047;-68
2023/10/09 09:35:05;;;;;;;19.60;12.77;;;18.80;84.60;;;;;;5041153;28;20029;-68
2023/10/09 09:37:51;;;;;;;18.88;12.57;;;18.80;84.60;;;;;;5020207;28;20033;-68
2023/10/09 09:40:30;;;;;;;23.02;13.82;;;18.80;84.60;;;;;;5038541;28;20458;-68
2023/10/09 09:43:11;;;;;;;16.95;12.25;;;18.90;84.60;;;;;;5033977;28;20138;-68
2023/10/09 09:45:38;;;;;;;19.83;12.40;;;18.90;84.60;;;;;;5048534;28;20036;-68
2023/10/09 09:48:06;;;;;;;18.45;12.20;;;18.90;84.50;;;;;;5040563;28;20033;-68
2023/10/09 09:50:43;;;;;;;19.35;12.27;;;19.00;84.50;;;;;;5017748;28;20037;-68
2023/10/09 09:53:16;;;;;;;20.77;12.85;;;19.10;84.50;;;;;;5047211;28;20037;-68
2023/10/09 09:55:59;;;;;;;19.23;11.90;;;19.10;84.50;;;;;;5047464;28;20025;-69
2023/10/09 09:58:32;;;;;;;15.85;11.27;;;19.20;84.40;;;;;;5030647;28;20029;-68
2023/10/09 10:01:08;;;;;;;18.60;11.38;;;19.20;84.30;;;;;;5037807;28;20116;-68
2023/10/09 10:03:43;;;;;;;16.77;10.45;;;19.20;84.30;;;;;;5031391;28;20030;-68
2023/10/09 10:06:12;;;;;;;16.58;10.80;;;19.30;84.20;;;;;;5034821;28;20037;-68
2023/10/09 10:08:39;;;;;;;19.02;11.30;;;19.30;84.10;;;;;;5011970;28;20028;-68
2023/10/09 10:11:05;;;;;;;18.73;10.80;;;19.30;84.00;;;;;;5039073;28;20021;-70
2023/10/09 10:13:40;;;;;;;17.13;11.00;;;19.40;84.00;;;;;;5038541;28;20033;-68
2023/10/09 10:16:13;;;;;;;17.70;10.15;;;19.50;84.00;;;;;;5035319;28;20049;-68
2023/10/09 10:21:39;;;;;;;20.92;9.98;;;19.50;83.90;;;;;;5047148;28;20029;-68
2023/10/09 10:24:32;;;;;;;15.80;10.15;;;19.50;83.80;;;;;;5046762;28;20071;-68
2023/10/09 10:27:10;;;;;;;17.92;10.25;;;19.50;83.60;;;;;;5036837;28;20429;-68
2023/10/09 10:29:38;;;;;;;13.68;8.38;;;19.60;83.60;;;;;;5035425;28;20057;-69
2023/10/09 10:32:08;;;;;;;15.90;9.30;;;19.60;83.60;;;;;;5041522;28;20036;-68
2023/10/09 10:34:46;;;;;;;16.10;9.68;;;19.60;83.50;;;;;;5055873;28;20013;-68
2023/10/09 10:37:13;;;;;;;17.70;8.73;;;19.70;83.60;;;;;;5048295;28;20060;-69
2023/10/09 10:39:59;;;;;;;16.23;8.48;;;19.70;83.50;;;;;;5035210;28;20051;-69
2023/10/09 10:42:34;;;;;;;16.17;8.07;;;19.70;83.40;;;;;;5044388;28;20091;-69
2023/10/09 10:45:02;;;;;;;14.32;8.43;;;19.70;83.30;;;;;;5034602;28;20025;-71
2023/10/09 10:47:34;;;;;;;15.32;8.35;;;19.70;83.30;;;;;;5036677;28;20022;-69
2023/10/09 10:50:16;;;;;;;13.95;8.68;;;19.80;83.30;;;;;;5041363;28;20040;-69
2023/10/09 10:52:41;;;;;;;13.25;8.10;;;19.80;83.30;;;;;;5033541;28;20025;-68
2023/10/09 10:55:17;;;;;;;14.70;8.18;;;19.80;83.20;;;;;;5034285;28;20029;-69
2023/10/09 10:58:00;;;;;;;14.77;7.95;;;19.80;83.10;;;;;;5036466;28;20416;-68
2023/10/09 11:03:23;;;;;;;13.82;7.20;;;19.90;82.90;;;;;;5037804;28;20116;-68
2023/10/09 11:05:52;;;;;;;12.57;6.45;;;19.90;82.70;;;;;;5032416;28;20131;-69
2023/10/09 11:08:23;;;;;;;11.80;6.93;;;20.00;82.60;;;;;;5014960;28;20366;-68
2023/10/09 11:10:50;;;;;;;12.40;7.38;;;20.10;82.50;;;;;;5045806;28;20075;-67
2023/10/09 11:14:14;;;;;;;12.05;7.22;;;20.20;82.30;;;;;;5034802;28;20057;-68
2023/10/09 11:16:15;;;;;;;14.35;7.70;;;20.30;82.10;;;;;;5028592;28;20041;-68
2023/10/09 11:18:44;;;;;;;14.98;7.78;;;20.30;82.00;;;;;;5031489;28;20025;-68
2023/10/09 11:23:47;;;;;;;13.98;7.47;;;20.30;81.90;;;;;;5030952;28;20112;-67
2023/10/09 11:26:26;;;;;;;15.18;7.10;;;20.30;81.90;;;;;;5029940;28;20029;-68
2023/10/09 11:29:23;;;;;;;11.75;6.55;;;20.30;81.80;;;;;;5029756;28;20415;-67
2023/10/09 11:32:18;;;;;;;11.40;6.22;;;20.40;81.70;;;;;;5032066;28;20116;-68
2023/10/09 11:34:54;;;;;;;12.63;6.72;;;20.40;81.60;;;;;;5049192;28;20075;-67
2023/10/09 11:39:56;;;;;;;12.13;6.18;;;20.40;81.40;;;;;;5039388;28;20103;-68
2023/10/09 11:42:37;;;;;;;13.35;6.15;;;20.50;81.30;;;;;;5030849;28;20021;-68
2023/10/09 11:45:37;;;;;;;14.82;6.60;;;20.50;81.20;;;;;;5029804;28;20032;-68
2023/10/09 11:48:46;;;;;;;13.93;6.35;;;20.60;81.00;;;;;;5027546;28;20029;-68
2023/10/09 11:51:19;;;;;;;12.43;6.13;;;20.70;80.70;;;;;;5034139;28;20047;-69
2023/10/09 11:53:54;;;;;;;11.15;5.95;;;20.80;80.60;;;;;;5030029;28;20108;-68
2023/10/09 11:56:26;;;;;;;10.38;6.10;;;20.80;80.40;;;;;;5042635;28;20045;-69
2023/10/09 11:58:52;;;;;;;15.07;6.55;;;20.90;80.40;;;;;;5045096;28;20045;-68
2023/10/09 12:01:22;;;;;;;12.43;6.18;;;20.80;80.20;;;;;;5030127;28;20048;-69
2023/10/09 12:03:49;;;;;;;11.85;5.93;;;20.90;80.20;;;;;;5040634;28;20025;-69
2023/10/09 12:06:18;;;;;;;13.23;6.03;;;20.90;80.10;;;;;;5029972;28;20040;-69
2023/10/09 12:08:48;;;;;;;11.45;6.25;;;20.90;80.00;;;;;;5030841;28;20035;-69
2023/10/09 12:11:22;;;;;;;14.77;6.30;;;20.90;79.90;;;;;;5030408;28;20459;-68
2023/10/09 12:13:56;;;;;;;8.38;5.18;;;20.90;79.80;;;;;;5028840;28;20041;-68
2023/10/09 12:16:27;;;;;;;13.23;6.47;;;21.00;79.70;;;;;;5027103;28;20119;-67
2023/10/09 12:18:54;;;;;;;10.52;5.88;;;21.00;79.70;;;;;;5027914;28;20025;-67
2023/10/09 12:21:20;;;;;;;11.80;5.80;;;21.00;79.50;;;;;;5028730;28;20052;-67
2023/10/09 12:23:47;;;;;;;13.15;5.57;;;21.00;79.30;;;;;;5017233;28;20025;-67
2023/10/09 12:26:16;;;;;;;11.20;5.35;;;21.00;79.20;;;;;;5027812;28;20044;-67
2023/10/09 12:28:45;;;;;;;14.20;6.53;;;21.00;79.20;;;;;;5027459;28;20053;-68
2023/10/09 12:31:15;;;;;;;13.45;5.68;;;21.00;79.30;;;;;;5028043;28;20359;-67
2023/10/09 12:33:41;;;;;;;12.45;6.05;;;21.00;79.30;;;;;;5027996;28;20504;-68
2023/10/09 12:36:19;;;;;;;11.68;5.35;;;21.00;79.30;;;;;;5029098;28;20152;-68
2023/10/09 12:38:52;;;;;;;11.27;5.40;;;21.00;79.30;;;;;;5030346;28;20045;-68
2023/10/09 12:41:25;;;;;;;12.75;5.30;;;21.00;79.10;;;;;;5033959;28;20443;-68
2023/10/09 12:43:52;;;;;;;12.32;4.85;;;21.00;79.00;;;;;;5032423;28;20531;-68
2023/10/09 12:46:22;;;;;;;10.88;5.13;;;21.00;78.80;;;;;;5026005;28;20451;-67
2023/10/09 12:48:49;;;;;;;10.85;5.03;;;20.90;78.90;;;;;;5032929;28;20031;-67
2023/10/09 12:51:18;;;;;;;9.20;5.05;;;20.90;79.00;;;;;;5045143;28;20037;-67
2023/10/09 12:53:45;;;;;;;10.82;5.40;;;20.80;79.00;;;;;;5031551;28;20067;-67
2023/10/09 12:56:12;;;;;;;11.40;5.15;;;20.80;79.00;;;;;;5017929;28;20029;-67
2023/10/09 12:58:52;;;;;;;12.65;5.85;;;20.70;79.00;;;;;;5033437;28;20033;-67
2023/10/09 13:01:20;;;;;;;10.75;4.65;;;20.70;79.00;;;;;;5035822;28;20026;-68
2023/10/09 13:03:49;;;;;;;12.07;5.03;;;20.70;79.00;;;;;;5033253;28;20033;-68
2023/10/09 13:06:23;;;;;;;9.88;4.78;;;20.60;79.00;;;;;;5032992;28;20041;-67
2023/10/09 13:08:51;;;;;;;11.73;5.18;;;20.60;79.00;;;;;;5032921;28;20026;-67
2023/10/09 13:11:18;;;;;;;11.70;5.28;;;20.60;79.00;;;;;;5031307;28;20140;-68
2023/10/09 13:13:50;;;;;;;13.00;5.43;;;20.60;79.00;;;;;;5038161;28;20095;-68
2023/10/09 13:16:23;;;;;;;12.50;5.10;;;20.60;79.00;;;;;;5046094;28;20033;-68
2023/10/09 13:18:54;;;;;;;12.68;5.30;;;20.60;79.00;;;;;;5029328;28;20068;-68
2023/10/09 13:21:26;;;;;;;10.60;4.85;;;20.50;79.00;;;;;;5049266;28;20029;-68
2023/10/09 13:23:54;;;;;;;12.98;5.47;;;20.50;79.00;;;;;;5056727;28;20094;-68
2023/10/09 13:26:32;;;;;;;9.00;4.57;;;20.50;79.00;;;;;;5056502;28;20071;-69
2023/10/09 13:29:02;;;;;;;12.77;5.75;;;20.50;79.10;;;;;;5032221;28;20034;-68
2023/10/09 13:31:31;;;;;;;10.77;4.72;;;20.50;79.20;;;;;;5032425;28;20136;-68
2023/10/09 13:33:59;;;;;;;10.10;4.70;;;20.40;79.20;;;;;;5056056;28;20048;-69
2023/10/09 13:36:31;;;;;;;10.57;4.95;;;20.40;79.20;;;;;;5045241;28;20033;-69
2023/10/09 13:41:48;;;;;;;;;;;20.40;79.20;;;;;;5035972;28;20111;-69
2023/10/09 13:44:15;;;;;;;10.60;4.65;;;20.40;79.30;;;;;;5052554;28;20253;-72
2023/10/09 13:46:41;;;;;;;9.95;4.13;;;20.30;79.30;;;;;;5044347;28;20048;-69
2023/10/09 13:49:14;;;;;;;11.90;4.95;;;20.30;79.40;;;;;;5045855;28;20032;-69
2023/10/09 13:51:44;;;;;;;10.95;5.25;;;20.30;79.50;;;;;;5039748;28;20040;-68
2023/10/09 13:54:20;;;;;;;14.15;5.45;;;20.30;79.50;;;;;;5036207;28;20043;-69
2023/10/09 13:56:55;;;;;;;9.68;4.97;;;20.30;79.60;;;;;;5040804;28;20039;-68
2023/10/09 13:59:24;;;;;;;11.82;4.70;;;20.30;79.70;;;;;;5048981;28;20032;-68
2023/10/09 14:01:50;;;;;;;9.27;5.00;;;20.20;79.60;;;;;;5022533;28;20037;-69
2023/10/09 14:04:19;;;;;;;12.60;5.35;;;20.30;79.80;;;;;;5042899;28;20041;-69
2023/10/09 14:06:47;;;;;;;13.43;5.45;;;20.20;79.80;;;;;;5050666;28;20037;-69
2023/10/09 14:09:27;;;;;;;10.00;5.63;;;20.20;79.90;;;;;;5035951;28;20044;-69
2023/10/09 14:12:08;;;;;;;10.50;5.28;;;20.20;79.80;;;;;;5039045;28;20446;-69
2023/10/09 14:14:40;;;;;;;10.87;5.17;;;20.20;79.80;;;;;;5026496;28;20397;-69
2023/10/09 14:17:13;;;;;;;11.63;5.43;;;20.30;79.90;;;;;;5030169;28;20663;-69
2023/10/09 14:19:49;;;;;;;11.05;4.93;;;20.30;79.90;;;;;;5037154;28;20503;-69
2023/10/09 14:22:17;;;;;;;12.00;5.82;;;20.30;79.90;;;;;;5049869;28;20437;-69
2023/10/09 14:24:45;;;;;;;11.48;5.82;;;20.30;79.90;;;;;;5032685;28;20029;-69
2023/10/09 14:27:20;;;;;;;11.07;5.10;;;20.30;79.90;;;;;;5033748;28;20465;-69
2023/10/09 14:29:46;;;;;;;10.90;5.45;;;20.30;79.90;;;;;;5034359;28;20038;-69
2023/10/09 14:32:15;;;;;;;11.40;5.22;;;20.30;80.00;;;;;;5034761;28;20028;-69
2023/10/09 14:35:26;;;;;;;10.52;5.55;;;20.40;80.00;;;;;;5033188;28;20048;-69
2023/10/09 14:37:31;;;;;;;9.45;4.85;;;20.40;80.00;;;;;;5038846;28;20041;-69
2023/10/09 14:39:58;;;;;;;10.13;4.88;;;20.40;80.00;;;;;;5037403;28;20035;-70
2023/10/09 14:42:27;;;;;;;11.00;5.15;;;20.40;80.00;;;;;;5046123;28;20057;-70
2023/10/09 14:44:55;;;;;;;9.90;4.97;;;20.40;80.00;;;;;;5043598;28;20026;-70
2023/10/09 14:47:21;;;;;;;9.25;4.90;;;20.30;80.00;;;;;;5039473;28;20457;-70
2023/10/09 14:49:47;;;;;;;14.63;5.32;;;20.30;80.20;;;;;;5041609;28;20029;-70
2023/10/09 14:52:18;;;;;;;12.80;5.90;;;20.30;80.20;;;;;;5036260;28;20033;-71
2023/10/09 14:54:44;;;;;;;;;;;20.30;80.20;;;;;;5045344;28;20021;-70
2023/10/09 14:57:13;;;;;;;9.55;4.00;;;20.30;80.20;;;;;;5045835;28;19924;-70
2023/10/09 14:59:39;;;;;;;13.55;5.03;;;20.30;80.20;;;;;;5022926;28;20120;-70
2023/10/09 15:02:06;;;;;;;12.18;5.13;;;20.30;80.30;;;;;;5041885;28;20044;-70
2023/10/09 15:04:35;;;;;;;9.88;5.43;;;20.30;81.10;;;;;;5043370;28;20033;-71
2023/10/09 15:07:01;;;;;;;11.38;6.00;;;20.30;80.60;;;;;;5031789;28;20041;-71
2023/10/09 15:09:31;;;;;;;10.52;5.20;;;20.30;80.60;;;;;;5029380;28;20044;-70
2023/10/09 15:11:57;;;;;;;14.00;5.95;;;20.30;80.70;;;;;;5049291;28;20017;-70
2023/10/09 15:14:23;;;;;;;12.20;5.72;;;20.30;80.70;;;;;;5029767;28;20028;-70
2023/10/09 15:16:50;;;;;;;14.07;6.07;;;20.30;80.70;;;;;;5030366;28;20354;-70
2023/10/09 15:19:16;;;;;;;11.73;5.55;;;20.30;80.70;;;;;;5045766;28;20464;-70
2023/10/09 15:21:46;;;;;;;12.00;5.55;;;20.30;80.70;;;;;;5029197;28;20032;-69